Satellite Precipitation Estimates (TXUS20 KWBC)
Issued by NWS

Home | Current Version | Previous Version | Text Only | Print | Product List | Glossary On
Versions: 1
000
SPTD31 TTPP 042032
SPECI
TTCP 042029Z 06005KT 9000 -SHRA VCSH BKN016TCU 26/24 Q1011 NOSIG
RMK TCU-NW VCSH-NE,SW=



USA.gov is the U.S. government's official web portal to all federal, state and local government web resources and services.